PWSweather.com
Personal Weather Stations
Station Observations
VPOKROGLO
Kal Nad Kanalom, PrimorskaSI

Kal Nad KanalomPrimorskaSI

Lat: 46.072, Lon: 13.734

Elevation: 2526

Station Type: WS-2355

https://okroglovreme.com

Latest ConditionsUpdated 1:00:00 PM GMT+01:01 Sunday, Jan 20, 2019
Currently Today's Max Today's Min Today's Average
Temperature 39.9°F4.4°C 39.9°F4.4°C 25.0°F-3.9°C 28.3°F-2.1°C
Dew Point 29.8°F-1.2°C 29.8°F-1.2°C 18.4°F-7.6°C 20.9°F-6.2°C
Winds 0.6 mph NNW1.0 kmh NNW 7.5 mph -12.1 kmh - - 3.9 mph 6.3 kmh
Wind Gusts 2.7 mph4.3 kmh 24.2 mph38.9 kmh - -
Humidity 67% 77% 65% 73%
Pressure 29.93 in1013.5 mb 29.96 in1014.6 mb 29.93 in1013.5 mb -
Precipitation - 0.12 in3.0 mm - -
Hour Temp Dew Point Humidity Winds Wind Gusts Pressure Precip Precip Rate Daily Precip Total
01:00 PM 39.9°F4.4°C 29.8°F-1.2°C 67% 0.6 mph NNW1.0 kmh NNW 2.7 mph4.3 kmh 29.93 in1013.5 mb 0.02 in0.5 mm 0.00 in0.0 mm 0.12 in3.0 mm
12:45 PM 37.9°F3.3°C 27.6°F-2.4°C 66% 2.1 mph NNW3.4 kmh NNW 3.6 mph5.8 kmh 29.94 in1013.9 mb 0.04 in1.0 mm 0.00 in0.0 mm 0.12 in3.0 mm
12:30 PM 38.1°F3.4°C 27.8°F-2.3°C 66% 1.8 mph N2.9 kmh N 5.4 mph8.7 kmh 29.94 in1013.9 mb 0.04 in1.0 mm 0.00 in0.0 mm 0.10 in2.5 mm
12:15 PM 37.8°F3.2°C 27.4°F-2.6°C 66% 2.6 mph N4.2 kmh N 5.8 mph9.3 kmh 29.94 in1013.9 mb 0.04 in1.0 mm 0.00 in0.0 mm 0.10 in2.5 mm
12:00 PM 39.0°F3.9°C 28.6°F-1.9°C 66% 0.1 mph W0.2 kmh W 1.3 mph2.1 kmh 29.94 in1013.9 mb 0.06 in1.5 mm 0.00 in0.0 mm 0.10 in2.5 mm
11:45 AM 39.0°F3.9°C 28.2°F-2.1°C 65% 0.2 mph W0.3 kmh W 1.6 mph2.6 kmh 29.94 in1013.9 mb 0.06 in1.5 mm 0.08 in2.0 mm 0.08 in2.0 mm
11:30 AM 36.1°F2.3°C 26.2°F-3.2°C 67% 0.1 mph W0.2 kmh W 1.3 mph2.1 kmh 29.94 in1013.9 mb 0.04 in1.0 mm 0.00 in0.0 mm 0.06 in1.5 mm
11:15 AM 37.0°F2.8°C 27.1°F-2.7°C 67% 0.4 mph W0.6 kmh W 2.5 mph4.0 kmh 29.94 in1013.9 mb 0.04 in1.0 mm 0.00 in0.0 mm 0.06 in1.5 mm
11:00 AM 35.4°F1.9°C 25.5°F-3.6°C 67% 0.2 mph W0.3 kmh W 1.8 mph2.9 kmh 29.94 in1013.9 mb 0.04 in1.0 mm 0.03 in0.8 mm 0.04 in1.0 mm
10:45 AM 35.2°F1.8°C 25.7°F-3.5°C 68% 0.4 mph W0.6 kmh W 3.8 mph6.1 kmh 29.95 in1014.2 mb 0.02 in0.5 mm 0.00 in0.0 mm 0.02 in0.5 mm
10:30 AM 34.3°F1.3°C 24.9°F-3.9°C 68% 0.8 mph SSE1.3 kmh SSE 4.3 mph6.9 kmh 29.94 in1013.9 mb 0.02 in0.5 mm 0.00 in0.0 mm 0.02 in0.5 mm
10:15 AM 32.2°F0.1°C 23.5°F-4.7°C 70% 0.4 mph E0.6 kmh E 2.9 mph4.7 kmh 29.94 in1013.9 mb 0.02 in0.5 mm 0.08 in2.0 mm 0.02 in0.5 mm
10:00 AM 30.6°F-0.8°C 22.3°F-5.4°C 71% 2.4 mph E3.9 kmh E 8.3 mph13.4 kmh 29.94 in1013.9 mb 0.00 in0.0 mm 0.00 in0.0 mm 0.00 in0.0 mm
09:45 AM 29.8°F-1.2°C 21.9°F-5.6°C 72% 2.7 mph E4.3 kmh E 7.4 mph11.9 kmh 29.94 in1013.9 mb 0.00 in0.0 mm 0.00 in0.0 mm 0.00 in0.0 mm
09:30 AM 29.1°F-1.6°C 21.9°F-5.6°C 74% 3.0 mph E4.8 kmh E 9.6 mph15.4 kmh 29.94 in1013.9 mb 0.00 in0.0 mm 0.00 in0.0 mm 0.00 in0.0 mm
09:15 AM 27.0°F-2.8°C 20.1°F-6.6°C 75% 3.0 mph E4.8 kmh E 8.3 mph13.4 kmh 29.94 in1013.9 mb 0.00 in0.0 mm 0.00 in0.0 mm 0.00 in0.0 mm
09:00 AM 25.5°F-3.6°C 19.0°F-7.2°C 76% 2.8 mph E4.5 kmh E 9.6 mph15.4 kmh 29.95 in1014.2 mb 0.00 in0.0 mm 0.00 in0.0 mm 0.00 in0.0 mm
08:45 AM 25.5°F-3.6°C 19.0°F-7.2°C 76% 3.6 mph E5.8 kmh E 7.8 mph12.6 kmh 29.95 in1014.2 mb 0.00 in0.0 mm 0.00 in0.0 mm 0.00 in0.0 mm
08:30 AM 25.3°F-3.7°C 18.8°F-7.3°C 76% 3.7 mph E6.0 kmh E 9.6 mph15.4 kmh 29.95 in1014.2 mb 0.00 in0.0 mm 0.00 in0.0 mm 0.00 in0.0 mm
08:15 AM 25.0°F-3.9°C 18.5°F-7.5°C 76% 3.2 mph E5.1 kmh E 6.9 mph11.1 kmh 29.96 in1014.6 mb 0.00 in0.0 mm 0.00 in0.0 mm 0.00 in0.0 mm
08:00 AM 25.2°F-3.8°C 18.7°F-7.4°C 76% 3.3 mph E5.3 kmh E 8.5 mph13.7 kmh 29.95 in1014.2 mb 0.00 in0.0 mm 0.00 in0.0 mm 0.00 in0.0 mm
07:45 AM 25.2°F-3.8°C 18.7°F-7.4°C 76% 3.5 mph E5.6 kmh E 10.5 mph16.9 kmh 29.95 in1014.2 mb 0.00 in0.0 mm 0.00 in0.0 mm 0.00 in0.0 mm
07:30 AM 25.2°F-3.8°C 18.7°F-7.4°C 76% 3.1 mph E5.0 kmh E 9.6 mph15.4 kmh 29.94 in1013.9 mb 0.00 in0.0 mm 0.00 in0.0 mm 0.00 in0.0 mm
07:15 AM 25.2°F-3.8°C 18.7°F-7.4°C 76% 3.7 mph E6.0 kmh E 9.6 mph15.4 kmh 29.93 in1013.5 mb 0.00 in0.0 mm 0.00 in0.0 mm 0.00 in0.0 mm
07:00 AM 25.2°F-3.8°C 18.7°F-7.4°C 76% 4.3 mph E6.9 kmh E 11.9 mph19.2 kmh 29.93 in1013.5 mb 0.00 in0.0 mm 0.00 in0.0 mm 0.00 in0.0 mm
06:45 AM 25.2°F-3.8°C 18.7°F-7.4°C 76% 3.9 mph E6.3 kmh E 13.2 mph21.2 kmh 29.93 in1013.5 mb 0.00 in0.0 mm 0.00 in0.0 mm 0.00 in0.0 mm
06:30 AM 25.3°F-3.7°C 18.8°F-7.3°C 76% 3.5 mph E5.6 kmh E 13.0 mph20.9 kmh 29.93 in1013.5 mb 0.00 in0.0 mm 0.00 in0.0 mm 0.00 in0.0 mm
06:15 AM 25.3°F-3.7°C 18.8°F-7.3°C 76% 4.1 mph E6.6 kmh E 8.9 mph14.3 kmh 29.93 in1013.5 mb 0.00 in0.0 mm 0.00 in0.0 mm 0.00 in0.0 mm
06:00 AM 25.3°F-3.7°C 18.8°F-7.3°C 76% 4.0 mph E6.4 kmh E 11.9 mph19.2 kmh 29.93 in1013.5 mb 0.00 in0.0 mm 0.00 in0.0 mm 0.00 in0.0 mm
05:45 AM 25.5°F-3.6°C 19.3°F-7.1°C 77% 4.9 mph E7.9 kmh E 12.1 mph19.5 kmh 29.93 in1013.5 mb 0.00 in0.0 mm 0.00 in0.0 mm 0.00 in0.0 mm
05:30 AM 25.3°F-3.7°C 19.1°F-7.2°C 77% 4.4 mph E7.1 kmh E 9.8 mph15.8 kmh 29.93 in1013.5 mb 0.00 in0.0 mm 0.00 in0.0 mm 0.00 in0.0 mm
05:15 AM 25.2°F-3.8°C 19.0°F-7.2°C 77% 3.9 mph E6.3 kmh E 9.6 mph15.4 kmh 29.93 in1013.5 mb 0.00 in0.0 mm 0.00 in0.0 mm 0.00 in0.0 mm
05:00 AM 25.5°F-3.6°C 19.0°F-7.2°C 76% 6.1 mph E9.8 kmh E 19.0 mph30.6 kmh 29.94 in1013.9 mb 0.00 in0.0 mm 0.00 in0.0 mm 0.00 in0.0 mm
04:45 AM 25.3°F-3.7°C 19.1°F-7.2°C 77% 5.7 mph E9.2 kmh E 12.5 mph20.1 kmh 29.95 in1014.2 mb 0.00 in0.0 mm 0.00 in0.0 mm 0.00 in0.0 mm
04:30 AM 25.2°F-3.8°C 18.7°F-7.4°C 76% 4.5 mph E7.2 kmh E 17.2 mph27.7 kmh 29.94 in1013.9 mb 0.00 in0.0 mm 0.00 in0.0 mm 0.00 in0.0 mm
04:15 AM 25.2°F-3.8°C 18.7°F-7.4°C 76% 4.8 mph E7.7 kmh E 14.3 mph23.0 kmh 29.95 in1014.2 mb 0.00 in0.0 mm 0.00 in0.0 mm 0.00 in0.0 mm
04:00 AM 25.3°F-3.7°C 18.5°F-7.5°C 75% 5.2 mph E8.4 kmh E 13.0 mph20.9 kmh 29.95 in1014.2 mb 0.00 in0.0 mm 0.00 in0.0 mm 0.00 in0.0 mm
03:45 AM 25.3°F-3.7°C 18.5°F-7.5°C 75% 5.0 mph E8.0 kmh E 13.0 mph20.9 kmh 29.94 in1013.9 mb 0.00 in0.0 mm 0.00 in0.0 mm 0.00 in0.0 mm
03:30 AM 25.5°F-3.6°C 18.4°F-7.6°C 74% 5.5 mph E8.9 kmh E 13.6 mph21.9 kmh 29.94 in1013.9 mb 0.00 in0.0 mm 0.00 in0.0 mm 0.00 in0.0 mm
03:15 AM 25.5°F-3.6°C 18.4°F-7.6°C 74% 5.6 mph E9.0 kmh E 13.2 mph21.2 kmh 29.94 in1013.9 mb 0.00 in0.0 mm 0.00 in0.0 mm 0.00 in0.0 mm
03:00 AM 25.5°F-3.6°C 18.4°F-7.6°C 74% 6.9 mph E11.1 kmh E 19.5 mph31.4 kmh 29.95 in1014.2 mb 0.00 in0.0 mm 0.00 in0.0 mm 0.00 in0.0 mm
02:45 AM 25.5°F-3.6°C 18.4°F-7.6°C 74% 5.9 mph E9.5 kmh E 14.5 mph23.3 kmh 29.94 in1013.9 mb 0.00 in0.0 mm 0.00 in0.0 mm 0.00 in0.0 mm
02:30 AM 25.9°F-3.4°C 18.7°F-7.4°C 74% 6.9 mph E11.1 kmh E 14.3 mph23.0 kmh 29.94 in1013.9 mb 0.00 in0.0 mm 0.00 in0.0 mm 0.00 in0.0 mm
02:15 AM 25.7°F-3.5°C 18.9°F-7.3°C 75% 5.8 mph E9.3 kmh E 20.1 mph32.3 kmh 29.93 in1013.5 mb 0.00 in0.0 mm 0.00 in0.0 mm 0.00 in0.0 mm
02:00 AM 25.9°F-3.4°C 19.0°F-7.2°C 75% 6.5 mph E10.5 kmh E 14.5 mph23.3 kmh 29.94 in1013.9 mb 0.00 in0.0 mm 0.00 in0.0 mm 0.00 in0.0 mm
01:45 AM 26.2°F-3.2°C 19.4°F-7.0°C 75% 6.6 mph E10.6 kmh E 14.3 mph23.0 kmh 29.94 in1013.9 mb 0.00 in0.0 mm 0.00 in0.0 mm 0.00 in0.0 mm
01:30 AM 26.1°F-3.3°C 18.9°F-7.3°C 74% 6.0 mph E9.7 kmh E 13.4 mph21.6 kmh 29.94 in1013.9 mb 0.00 in0.0 mm 0.00 in0.0 mm 0.00 in0.0 mm
01:15 AM 26.1°F-3.3°C 19.2°F-7.1°C 75% 7.4 mph E11.9 kmh E 18.1 mph29.1 kmh 29.94 in1013.9 mb 0.00 in0.0 mm 0.00 in0.0 mm 0.00 in0.0 mm
01:00 AM 25.9°F-3.4°C 19.4°F-7.0°C 76% 5.4 mph E8.7 kmh E 15.9 mph25.6 kmh 29.95 in1014.2 mb 0.00 in0.0 mm 0.00 in0.0 mm 0.00 in0.0 mm
12:45 AM 25.7°F-3.5°C 19.2°F-7.1°C 76% 6.3 mph E10.1 kmh E 24.2 mph38.9 kmh 29.95 in1014.2 mb 0.00 in0.0 mm 0.00 in0.0 mm 0.00 in0.0 mm
12:30 AM 25.5°F-3.6°C 19.0°F-7.2°C 76% 6.9 mph E11.1 kmh E 20.1 mph32.3 kmh 29.94 in1013.9 mb 0.00 in0.0 mm 0.00 in0.0 mm 0.00 in0.0 mm
12:15 AM 25.5°F-3.6°C 19.0°F-7.2°C 76% 5.9 mph E9.5 kmh E 15.9 mph25.6 kmh 29.95 in1014.2 mb 0.00 in0.0 mm 0.00 in0.0 mm 0.00 in0.0 mm
12:00 AM 25.9°F-3.4°C 19.4°F-7.0°C 76% 7.5 mph E12.1 kmh E 17.4 mph28.0 kmh 29.96 in1014.6 mb 0.00 in0.0 mm 0.00 in0.0 mm 0.00 in0.0 mm